Time;durP1;ratioP1;P1;durP2;ratioP2;P2;SDS_P1;SDS_P2;PMS_P1;PMS_P2;Temp;Humidity;BMP_temperature;BMP_pressure;BME280_temperature;BME280_humidity;BME280_pressure;Samples;Min_cycle;Max_cycle;Signal;HPM_P1;HPM_P2
2022/06/12 00:01:13;;;;;;;3.55;1.40;;;23.10;99.90;;;;;;4242282;28;20266;-74
2022/06/12 00:03:18;;;;;;;2.17;1.00;;;23.00;99.90;;;;;;4244016;28;20653;-74
2022/06/12 00:05:22;;;;;;;3.40;1.42;;;23.00;99.90;;;;;;4241780;28;20687;-74
2022/06/12 00:07:25;;;;;;;2.05;1.23;;;23.00;99.90;;;;;;4243291;28;20258;-74
2022/06/12 00:09:29;;;;;;;1.92;1.25;;;23.00;99.90;;;;;;4243255;28;20793;-74
2022/06/12 00:11:33;;;;;;;2.03;1.30;;;23.00;99.90;;;;;;4242543;27;20213;-73
2022/06/12 00:13:39;;;;;;;3.20;1.45;;;23.00;99.90;;;;;;4246600;27;20213;-74
2022/06/12 00:15:42;;;;;;;4.40;1.42;;;23.00;99.90;;;;;;4246755;27;20272;-74
2022/06/12 00:17:44;;;;;;;2.33;1.15;;;22.90;99.90;;;;;;4246811;27;20217;-74
2022/06/12 00:19:49;;;;;;;3.15;1.40;;;22.90;99.90;;;;;;4247082;27;20611;-74
2022/06/12 00:21:53;;;;;;;2.35;1.40;;;22.90;99.90;;;;;;4246408;27;20213;-74
2022/06/12 00:24:00;;;;;;;2.58;1.33;;;23.00;99.90;;;;;;4245797;27;20213;-74
2022/06/12 00:26:04;;;;;;;4.28;1.50;;;22.90;99.90;;;;;;4246690;27;20262;-74
2022/06/12 00:28:07;;;;;;;2.42;1.05;;;22.90;99.90;;;;;;4245832;27;20209;-74
2022/06/12 00:30:13;;;;;;;2.60;1.40;;;22.90;99.90;;;;;;4246756;27;20213;-74
2022/06/12 00:32:17;;;;;;;3.75;1.40;;;22.90;99.90;;;;;;4246165;27;20217;-74
2022/06/12 00:34:23;;;;;;;2.20;1.25;;;22.90;99.90;;;;;;4243258;27;20232;-74
2022/06/12 00:36:26;;;;;;;4.20;1.60;;;22.90;99.90;;;;;;4244617;27;20216;-74
2022/06/12 00:38:28;;;;;;;2.15;1.10;;;22.90;99.90;;;;;;4246360;27;20213;-74
2022/06/12 00:40:30;;;;;;;2.88;1.25;;;22.90;99.90;;;;;;4244175;27;20209;-74
2022/06/12 00:42:37;;;;;;;2.50;1.20;;;22.90;99.90;;;;;;4246302;27;20273;-74
2022/06/12 00:44:43;;;;;;;2.70;1.40;;;22.90;99.90;;;;;;4243392;27;20213;-74
2022/06/12 00:46:49;;;;;;;3.80;1.33;;;22.90;99.90;;;;;;4245631;27;20205;-74
2022/06/12 00:48:51;;;;;;;2.55;1.30;;;22.90;99.90;;;;;;4246121;27;20213;-74
2022/06/12 00:50:58;;;;;;;1.63;1.08;;;22.80;99.90;;;;;;4245984;27;20661;-74
2022/06/12 00:53:01;;;;;;;3.38;1.30;;;22.90;99.90;;;;;;4245900;27;20213;-74
2022/06/12 00:55:10;;;;;;;2.22;1.40;;;22.80;99.90;;;;;;4245339;27;20282;-74
2022/06/12 00:57:13;;;;;;;2.70;1.40;;;22.90;99.90;;;;;;4241107;27;20221;-74
2022/06/12 00:59:20;;;;;;;2.92;1.40;;;22.90;99.90;;;;;;4244139;27;20216;-74
2022/06/12 01:01:28;;;;;;;3.63;1.65;;;22.80;99.90;;;;;;4244640;27;20228;-74
2022/06/12 01:03:31;;;;;;;1.83;1.30;;;22.80;99.90;;;;;;4243954;27;20212;-74
2022/06/12 01:07:56;;;;;;;1.85;1.27;;;22.80;99.90;;;;;;4244690;27;20201;-74
2022/06/12 01:10:02;;;;;;;3.10;1.52;;;22.80;99.90;;;;;;4245396;27;20232;-74
2022/06/12 01:12:07;;;;;;;2.70;1.50;;;22.80;99.90;;;;;;4245281;27;20213;-74
2022/06/12 01:14:13;;;;;;;4.13;1.40;;;22.80;99.90;;;;;;4243937;27;20596;-74
2022/06/12 01:16:21;;;;;;;1.88;1.30;;;22.80;99.90;;;;;;4245337;27;20216;-74
2022/06/12 01:18:26;;;;;;;1.98;1.40;;;22.80;99.90;;;;;;4243450;27;20774;-74
2022/06/12 01:20:33;;;;;;;3.78;1.73;;;22.70;99.90;;;;;;4243669;27;20213;-74
2022/06/12 01:23:15;;;;;;;2.92;1.23;;;22.70;99.90;;;;;;4244647;27;20221;-74
2022/06/12 01:25:41;;;;;;;3.00;1.40;;;22.70;99.90;;;;;;4245655;27;20227;-74
2022/06/12 01:28:13;;;;;;;3.03;1.40;;;22.80;99.90;;;;;;4243763;27;20217;-74
2022/06/12 01:30:20;;;;;;;2.05;1.45;;;22.70;99.90;;;;;;4225247;27;20278;-74
2022/06/12 01:32:29;;;;;;;2.38;1.55;;;22.70;99.90;;;;;;4244096;27;20273;-74
2022/06/12 01:34:42;;;;;;;3.55;1.40;;;22.70;99.90;;;;;;4247088;27;20208;-74
2022/06/12 01:36:55;;;;;;;3.30;1.40;;;22.70;99.90;;;;;;4243165;27;20229;-74
2022/06/12 01:39:09;;;;;;;2.47;1.42;;;22.70;99.90;;;;;;4243222;27;20217;-74
2022/06/12 01:41:22;;;;;;;3.53;1.58;;;22.70;99.90;;;;;;4244849;27;20228;-74
2022/06/12 01:43:31;;;;;;;1.90;1.20;;;22.70;99.90;;;;;;4243919;27;20213;-74
2022/06/12 01:45:44;;;;;;;3.47;1.50;;;22.70;99.90;;;;;;4245232;27;20258;-74
2022/06/12 01:47:54;;;;;;;3.78;1.35;;;22.60;99.90;;;;;;4242091;27;20213;-74
2022/06/12 01:50:06;;;;;;;3.15;1.40;;;22.70;99.90;;;;;;4228635;27;20211;-80
2022/06/12 01:52:16;;;;;;;3.10;1.63;;;22.60;99.90;;;;;;4245609;27;20225;-80
2022/06/12 01:54:25;;;;;;;2.70;1.52;;;22.60;99.90;;;;;;4242035;27;20217;-79
2022/06/12 01:56:41;;;;;;;1.75;1.23;;;22.60;99.90;;;;;;4245189;27;20248;-80
2022/06/12 01:58:51;;;;;;;3.22;1.58;;;22.70;99.90;;;;;;4244823;27;20213;-80
2022/06/12 02:01:02;;;;;;;2.55;1.50;;;22.60;99.90;;;;;;4243477;27;20265;-79
2022/06/12 02:03:11;;;;;;;2.75;1.50;;;22.60;99.90;;;;;;4244822;27;20357;-79
2022/06/12 02:05:18;;;;;;;3.05;1.50;;;22.60;99.90;;;;;;4240939;27;20293;-80
2022/06/12 02:07:25;;;;;;;3.80;1.52;;;22.60;99.90;;;;;;4243118;27;20250;-80
2022/06/12 02:09:33;;;;;;;3.15;1.65;;;22.60;99.90;;;;;;4243208;27;20236;-80
2022/06/12 02:14:03;;;;;;;3.00;1.40;;;22.60;99.90;;;;;;4243649;27;20201;-79
2022/06/12 02:16:11;;;;;;;2.95;1.73;;;22.50;99.90;;;;;;4242031;27;20237;-80
2022/06/12 02:18:20;;;;;;;2.03;1.27;;;22.60;99.90;;;;;;4243284;27;20238;-79
2022/06/12 02:20:28;;;;;;;3.33;1.70;;;22.60;99.90;;;;;;4242284;27;20217;-80
2022/06/12 02:22:33;;;;;;;2.70;1.38;;;22.60;99.90;;;;;;4244182;27;20209;-79
2022/06/12 02:24:39;;;;;;;3.80;1.67;;;22.60;99.90;;;;;;4244871;27;20285;-79
2022/06/12 02:26:46;;;;;;;4.32;1.55;;;22.50;99.90;;;;;;4244220;27;20209;-79
2022/06/12 02:28:52;;;;;;;4.40;1.80;;;22.50;99.90;;;;;;4245078;27;20216;-79
2022/06/12 02:30:58;;;;;;;2.58;1.30;;;22.60;99.90;;;;;;4244581;27;20213;-80
2022/06/12 02:33:05;;;;;;;3.65;1.73;;;22.50;99.90;;;;;;4244348;27;20205;-79
2022/06/12 02:35:15;;;;;;;2.70;1.67;;;22.50;99.90;;;;;;4244655;27;20216;-80
2022/06/12 02:37:22;;;;;;;5.05;1.77;;;22.50;99.90;;;;;;4244906;27;20641;-80
2022/06/12 02:39:28;;;;;;;2.53;1.50;;;22.50;99.90;;;;;;4243059;27;20217;-80
2022/06/12 02:41:35;;;;;;;3.50;1.38;;;22.50;99.90;;;;;;4244886;27;20220;-80
2022/06/12 02:43:39;;;;;;;2.67;1.30;;;22.50;99.90;;;;;;4242891;27;20208;-79
2022/06/12 02:45:48;;;;;;;3.72;1.50;;;22.50;99.90;;;;;;4243970;27;20205;-79
2022/06/12 02:47:51;;;;;;;3.10;1.50;;;22.50;99.90;;;;;;4244195;27;20348;-80
2022/06/12 02:49:56;;;;;;;2.75;1.50;;;22.50;99.90;;;;;;4224515;27;20267;-74
2022/06/12 02:52:05;;;;;;;2.83;1.63;;;22.50;99.90;;;;;;4230679;28;20282;-74
2022/06/12 02:54:17;;;;;;;3.05;1.50;;;22.50;99.90;;;;;;4225217;28;20209;-74
2022/06/12 02:56:26;;;;;;;3.10;1.48;;;22.50;99.90;;;;;;4223144;28;20229;-74
2022/06/12 02:58:33;;;;;;;3.38;1.58;;;22.50;99.90;;;;;;4225448;28;20263;-74
2022/06/12 03:00:42;;;;;;;5.40;1.65;;;22.50;99.90;;;;;;4223990;28;20217;-74
2022/06/12 03:02:53;;;;;;;3.42;1.40;;;22.40;99.90;;;;;;4228175;28;20318;-74
2022/06/12 03:05:00;;;;;;;4.25;1.67;;;22.50;99.90;;;;;;4226893;28;20213;-73
2022/06/12 03:07:04;;;;;;;2.70;1.55;;;22.50;99.90;;;;;;4224344;28;20262;-74
2022/06/12 03:09:07;;;;;;;4.85;1.90;;;22.50;99.90;;;;;;4227353;28;20242;-74
2022/06/12 03:11:15;;;;;;;2.50;1.40;;;22.40;99.90;;;;;;4242183;28;20627;-74
2022/06/12 03:13:19;;;;;;;3.08;1.60;;;22.50;99.90;;;;;;4238098;28;20220;-74
2022/06/12 03:15:35;;;;;;;4.10;1.70;;;22.40;99.90;;;;;;4241392;28;20228;-74
2022/06/12 03:17:37;;;;;;;4.05;1.77;;;22.40;99.90;;;;;;4239818;28;20255;-74
2022/06/12 03:19:46;;;;;;;2.40;1.40;;;22.40;99.90;;;;;;4243031;28;20217;-74
2022/06/12 03:21:57;;;;;;;4.93;1.98;;;22.40;99.90;;;;;;4240986;28;20269;-74
2022/06/12 03:24:19;;;;;;;3.83;1.60;;;22.50;99.90;;;;;;4232769;28;20213;-74
2022/06/12 03:26:29;;;;;;;3.75;1.88;;;22.40;99.90;;;;;;4218717;28;21015;-74
2022/06/12 03:28:41;;;;;;;3.88;1.90;;;22.40;99.90;;;;;;4232183;28;20213;-74
2022/06/12 03:30:48;;;;;;;2.65;1.60;;;22.40;99.90;;;;;;4228982;28;20271;-74
2022/06/12 03:32:58;;;;;;;2.65;1.38;;;22.40;99.90;;;;;;4231952;28;20212;-74
2022/06/12 03:35:09;;;;;;;4.53;1.98;;;22.40;99.90;;;;;;4230812;28;20628;-74
2022/06/12 03:37:19;;;;;;;4.00;1.60;;;22.40;99.90;;;;;;4233564;28;20318;-74
2022/06/12 03:39:27;;;;;;;3.40;1.40;;;22.40;99.90;;;;;;4233764;28;20213;-74
2022/06/12 03:41:35;;;;;;;4.00;1.70;;;22.30;99.90;;;;;;4233863;28;20234;-74
2022/06/12 03:43:41;;;;;;;3.35;1.75;;;22.40;99.90;;;;;;4232504;28;20238;-74
2022/06/12 03:45:48;;;;;;;4.28;1.65;;;22.40;99.90;;;;;;4232995;28;20218;-74
2022/06/12 03:47:54;;;;;;;4.15;2.00;;;22.40;99.90;;;;;;4230912;27;20231;-74
2022/06/12 03:50:01;;;;;;;4.78;1.77;;;22.40;99.90;;;;;;4233244;27;20650;-74
2022/06/12 03:52:14;;;;;;;3.60;1.50;;;22.40;99.90;;;;;;4234407;27;20258;-74
2022/06/12 03:54:25;;;;;;;3.22;1.52;;;22.40;99.90;;;;;;4235404;27;20658;-74
2022/06/12 03:58:59;;;;;;;2.60;1.60;;;22.30;99.90;;;;;;4238878;27;20198;-74
2022/06/12 04:01:03;;;;;;;3.00;1.35;;;22.40;99.90;;;;;;4237777;27;20217;-74
2022/06/12 04:03:09;;;;;;;1.70;1.20;;;22.30;99.90;;;;;;4234280;27;20565;-74
2022/06/12 04:05:19;;;;;;;3.67;2.00;;;22.30;99.90;;;;;;4233215;27;20255;-74
2022/06/12 04:07:25;;;;;;;5.30;2.13;;;22.30;99.90;;;;;;4233413;27;20262;-74
2022/06/12 04:09:32;;;;;;;4.60;1.60;;;22.30;99.90;;;;;;4225468;27;20237;-74
2022/06/12 04:11:39;;;;;;;3.42;1.77;;;22.30;99.90;;;;;;4210817;28;20222;-74
2022/06/12 04:13:42;;;;;;;4.03;1.70;;;22.30;99.90;;;;;;4211184;28;20226;-74
2022/06/12 04:15:52;;;;;;;4.00;1.50;;;22.30;99.90;;;;;;4211033;28;20305;-74
2022/06/12 04:17:56;;;;;;;4.97;1.55;;;22.30;99.90;;;;;;4211205;28;20314;-74
2022/06/12 04:20:04;;;;;;;2.60;1.55;;;22.30;99.90;;;;;;4208564;28;20202;-74
2022/06/12 04:22:10;;;;;;;3.63;1.60;;;22.30;99.90;;;;;;4210543;28;20202;-74
2022/06/12 04:24:17;;;;;;;3.83;1.80;;;22.30;99.90;;;;;;4211322;28;20218;-74
2022/06/12 04:26:28;;;;;;;5.80;1.83;;;22.30;99.90;;;;;;4208533;28;20264;-74
2022/06/12 04:28:35;;;;;;;3.97;1.90;;;22.30;99.90;;;;;;4210002;28;20295;-74
2022/06/12 04:30:39;;;;;;;5.57;2.00;;;22.30;99.90;;;;;;4210163;28;20210;-74
2022/06/12 04:32:41;;;;;;;4.57;1.52;;;22.30;99.90;;;;;;4209189;28;20252;-74
2022/06/12 04:34:44;;;;;;;5.95;1.58;;;22.30;99.90;;;;;;4211472;28;20222;-74
2022/06/12 04:36:49;;;;;;;4.28;1.80;;;22.30;99.90;;;;;;4210281;28;20246;-74
2022/06/12 04:38:53;;;;;;;2.55;1.70;;;22.30;99.90;;;;;;4208137;28;20274;-74
2022/06/12 04:40:56;;;;;;;4.32;1.55;;;22.30;99.90;;;;;;4209476;28;20214;-74
2022/06/12 04:43:00;;;;;;;4.22;1.50;;;22.30;99.90;;;;;;4209000;28;20294;-74
2022/06/12 04:45:05;;;;;;;3.72;1.50;;;22.30;99.90;;;;;;4210095;28;20582;-74
2022/06/12 04:47:12;;;;;;;4.20;1.88;;;22.30;99.90;;;;;;4210549;28;20244;-74
2022/06/12 04:49:17;;;;;;;4.40;1.80;;;22.30;99.90;;;;;;4210581;28;20650;-74
2022/06/12 04:51:20;;;;;;;3.20;1.50;;;22.20;99.90;;;;;;4210455;28;20210;-73
2022/06/12 04:53:23;;;;;;;4.63;1.92;;;22.30;99.90;;;;;;4210571;28;20276;-74
2022/06/12 04:55:25;;;;;;;3.30;1.95;;;22.30;99.90;;;;;;4207294;28;20230;-74
2022/06/12 04:57:27;;;;;;;4.22;1.70;;;22.30;99.90;;;;;;4210487;28;20653;-74
2022/06/12 04:59:31;;;;;;;3.63;1.80;;;22.30;99.90;;;;;;4210480;28;20252;-74
2022/06/12 05:01:33;;;;;;;4.03;1.80;;;22.30;99.90;;;;;;4209546;28;20852;-74
2022/06/12 05:03:36;;;;;;;4.25;1.60;;;22.30;99.90;;;;;;4210934;28;20207;-74
2022/06/12 05:05:39;;;;;;;4.75;1.85;;;22.30;99.90;;;;;;4210217;28;20222;-74
2022/06/12 05:07:41;;;;;;;4.75;1.80;;;22.30;99.90;;;;;;4208952;28;20300;-74
2022/06/12 05:09:45;;;;;;;4.22;1.88;;;22.30;99.90;;;;;;4225434;27;20282;-74
2022/06/12 05:11:48;;;;;;;6.50;1.92;;;22.30;99.90;;;;;;4243756;27;20677;-74
2022/06/12 05:13:50;;;;;;;2.95;1.63;;;22.20;99.90;;;;;;4244766;27;20213;-74
2022/06/12 05:15:55;;;;;;;4.20;1.90;;;22.30;99.90;;;;;;4244620;27;20291;-74
2022/06/12 05:17:57;;;;;;;4.32;1.95;;;22.30;99.90;;;;;;4243747;27;20274;-74
2022/06/12 05:20:01;;;;;;;6.22;2.28;;;22.30;99.90;;;;;;4242161;27;20256;-74
2022/06/12 05:22:05;;;;;;;5.22;1.92;;;22.30;99.90;;;;;;4244364;27;20209;-74
2022/06/12 05:24:09;;;;;;;4.10;1.70;;;22.30;99.90;;;;;;4244355;27;20213;-74
2022/06/12 05:26:15;;;;;;;3.28;1.58;;;22.30;99.90;;;;;;4244066;27;20254;-74
2022/06/12 05:28:20;;;;;;;3.65;1.65;;;22.30;99.90;;;;;;4241639;27;21764;-74
2022/06/12 05:30:25;;;;;;;6.00;1.95;;;22.30;99.90;;;;;;4244577;27;20221;-74
2022/06/12 05:32:28;;;;;;;4.50;1.70;;;22.30;99.90;;;;;;4244095;27;20225;-74
2022/06/12 05:34:31;;;;;;;6.65;2.22;;;22.30;99.90;;;;;;4241847;27;20274;-74
2022/06/12 05:36:34;;;;;;;5.55;1.98;;;22.30;99.90;;;;;;4244276;27;20209;-74
2022/06/12 05:38:36;;;;;;;3.42;1.52;;;22.30;99.90;;;;;;4244288;27;20209;-74
2022/06/12 05:40:41;;;;;;;5.00;2.00;;;22.30;99.90;;;;;;4244251;27;20225;-74
2022/06/12 05:42:44;;;;;;;4.68;1.50;;;22.30;99.90;;;;;;4243545;27;20289;-74
2022/06/12 05:44:46;;;;;;;3.30;1.70;;;22.30;99.90;;;;;;4243854;27;20225;-74
2022/06/12 05:46:48;;;;;;;3.33;1.52;;;22.30;99.90;;;;;;4242005;27;20292;-74
2022/06/12 05:48:52;;;;;;;3.90;1.75;;;22.30;99.90;;;;;;4243977;27;20681;-74
2022/06/12 05:50:56;;;;;;;3.40;1.50;;;22.30;99.90;;;;;;4242555;27;20318;-74
2022/06/12 05:52:59;;;;;;;4.20;2.03;;;22.30;99.90;;;;;;4243940;27;20274;-74
2022/06/12 05:55:02;;;;;;;3.78;1.85;;;22.30;99.90;;;;;;4243667;27;20653;-74
2022/06/12 05:57:05;;;;;;;7.70;1.85;;;22.30;99.90;;;;;;4243903;27;20241;-74
2022/06/12 05:59:08;;;;;;;5.18;2.25;;;22.30;99.90;;;;;;4243702;27;20270;-74
2022/06/12 06:01:13;;;;;;;2.00;1.45;;;22.30;99.90;;;;;;4243667;27;20225;-74
2022/06/12 06:03:15;;;;;;;6.45;1.92;;;22.30;99.90;;;;;;4242541;27;20225;-74
2022/06/12 06:05:19;;;;;;;3.42;1.70;;;22.30;99.90;;;;;;4244016;27;21147;-74
2022/06/12 06:07:21;;;;;;;3.65;1.92;;;22.30;99.90;;;;;;4243239;27;20261;-74
2022/06/12 06:09:24;;;;;;;3.65;1.52;;;22.30;99.90;;;;;;4242579;27;20262;-74
2022/06/12 06:11:27;;;;;;;4.25;1.73;;;22.30;99.90;;;;;;4243527;27;20565;-74
2022/06/12 06:13:29;;;;;;;4.22;2.08;;;22.30;99.90;;;;;;4243277;27;20221;-74
2022/06/12 06:15:31;;;;;;;4.90;1.88;;;22.30;99.90;;;;;;4243513;27;20621;-74
2022/06/12 06:17:34;;;;;;;4.20;2.00;;;22.30;99.90;;;;;;4242940;27;20317;-74
2022/06/12 06:19:36;;;;;;;4.50;1.65;;;22.30;99.90;;;;;;4242112;27;20238;-74
2022/06/12 06:21:40;;;;;;;4.30;1.70;;;22.40;99.90;;;;;;4243074;27;20209;-74
2022/06/12 06:23:43;;;;;;;4.25;1.80;;;22.30;99.90;;;;;;4243073;27;20262;-74
2022/06/12 06:25:45;;;;;;;4.65;1.88;;;22.30;99.90;;;;;;4240497;27;20631;-74
2022/06/12 06:27:48;;;;;;;3.60;1.85;;;22.40;99.90;;;;;;4241050;27;20282;-74
2022/06/12 06:29:50;;;;;;;5.25;2.10;;;22.30;99.90;;;;;;4242910;27;20261;-74
2022/06/12 06:31:53;;;;;;;3.58;1.70;;;22.40;99.90;;;;;;4243075;27;20242;-74
2022/06/12 06:33:56;;;;;;;3.83;1.75;;;22.40;99.90;;;;;;4243092;27;20216;-74
2022/06/12 06:35:59;;;;;;;4.28;1.98;;;22.40;99.90;;;;;;4242312;27;20722;-74
2022/06/12 06:38:03;;;;;;;4.03;1.98;;;22.40;99.90;;;;;;4242951;27;20849;-74
2022/06/12 06:40:08;;;;;;;3.75;1.67;;;22.40;99.90;;;;;;4242949;27;21065;-74
2022/06/12 06:42:11;;;;;;;3.97;1.77;;;22.40;99.90;;;;;;4239293;27;20277;-73
2022/06/12 06:46:33;;;;;;;6.60;2.00;;;22.40;99.90;;;;;;4243647;27;20201;-73
2022/06/12 06:48:35;;;;;;;4.70;1.77;;;22.40;99.90;;;;;;4242994;27;20209;-73
2022/06/12 06:50:38;;;;;;;4.93;2.00;;;22.40;99.90;;;;;;4243162;27;20216;-73
2022/06/12 06:52:41;;;;;;;6.45;2.20;;;22.40;99.90;;;;;;4242097;27;20228;-73
2022/06/12 06:54:44;;;;;;;5.18;1.92;;;22.40;99.90;;;;;;4241572;27;20213;-73
2022/06/12 06:56:47;;;;;;;3.08;1.80;;;22.40;99.90;;;;;;4241689;27;20213;-73
2022/06/12 06:58:50;;;;;;;4.97;1.98;;;22.40;99.90;;;;;;4242361;27;20237;-73
2022/06/12 07:00:53;;;;;;;5.13;2.05;;;22.40;99.90;;;;;;4243463;27;21103;-73
2022/06/12 07:02:56;;;;;;;3.88;1.65;;;22.40;99.90;;;;;;4242763;27;20221;-73
2022/06/12 07:04:59;;;;;;;3.58;1.63;;;22.40;99.90;;;;;;4243024;27;20254;-73
2022/06/12 07:07:01;;;;;;;4.85;1.63;;;22.40;99.90;;;;;;4242608;28;20246;-73
2022/06/12 07:09:04;;;;;;;3.42;1.90;;;22.40;99.90;;;;;;4242558;28;20718;-73
2022/06/12 07:11:08;;;;;;;4.28;1.92;;;22.40;99.90;;;;;;4241662;28;20270;-73
2022/06/12 07:13:10;;;;;;;6.18;2.08;;;22.40;99.90;;;;;;4243362;28;20618;-73
2022/06/12 07:15:14;;;;;;;3.67;1.70;;;22.40;99.90;;;;;;4242798;28;20225;-73
2022/06/12 07:17:16;;;;;;;5.45;1.98;;;22.40;99.90;;;;;;4242632;28;20291;-73
2022/06/12 07:19:18;;;;;;;3.72;1.85;;;22.40;99.90;;;;;;4243020;28;20598;-73
2022/06/12 07:21:21;;;;;;;5.00;2.17;;;22.40;99.90;;;;;;4245471;27;20216;-73
2022/06/12 07:23:25;;;;;;;3.78;1.65;;;22.40;99.90;;;;;;4246022;27;20228;-73
2022/06/12 07:25:27;;;;;;;6.13;2.10;;;22.50;99.90;;;;;;4246391;27;20634;-73
2022/06/12 07:27:31;;;;;;;5.53;2.10;;;22.50;99.90;;;;;;4244199;27;21929;-73
2022/06/12 07:29:34;;;;;;;6.22;2.28;;;22.50;99.90;;;;;;4246139;27;20209;-73
2022/06/12 07:31:36;;;;;;;4.85;1.55;;;22.50;99.90;;;;;;4246267;27;20213;-74
2022/06/12 07:33:38;;;;;;;3.15;2.10;;;22.50;99.90;;;;;;4244413;27;20213;-73
2022/06/12 07:35:42;;;;;;;5.32;2.00;;;22.50;99.90;;;;;;4245970;27;20209;-73
2022/06/12 07:37:45;;;;;;;4.82;1.92;;;22.50;99.90;;;;;;4245938;27;20221;-73
2022/06/12 07:39:48;;;;;;;3.50;1.92;;;22.50;99.90;;;;;;4246253;27;20217;-73
2022/06/12 07:41:52;;;;;;;5.22;1.90;;;22.50;99.90;;;;;;4242241;27;20205;-73
2022/06/12 07:43:55;;;;;;;4.97;1.80;;;22.50;99.90;;;;;;4245283;27;20217;-73
2022/06/12 07:45:58;;;;;;;6.63;2.25;;;22.50;99.90;;;;;;4246047;27;20790;-73
2022/06/12 07:48:00;;;;;;;4.70;2.15;;;22.60;99.90;;;;;;4245909;27;20265;-73
2022/06/12 07:50:02;;;;;;;5.28;1.98;;;22.60;99.90;;;;;;4245251;27;20213;-74
2022/06/12 07:52:08;;;;;;;3.83;2.20;;;22.60;99.90;;;;;;4245972;27;20205;-74
2022/06/12 07:54:10;;;;;;;4.20;1.98;;;22.60;99.90;;;;;;4245478;27;20209;-73
2022/06/12 07:56:14;;;;;;;4.85;1.92;;;22.60;99.90;;;;;;4246059;27;20277;-73
2022/06/12 07:58:16;;;;;;;6.05;2.33;;;22.60;99.90;;;;;;4245840;27;20248;-73
2022/06/12 08:00:20;;;;;;;7.07;2.38;;;22.60;99.90;;;;;;4245549;27;20645;-74
2022/06/12 08:02:22;;;;;;;4.03;1.88;;;22.60;99.90;;;;;;4241851;27;20681;-73
2022/06/12 08:04:25;;;;;;;4.88;2.33;;;22.60;99.90;;;;;;4245825;27;20269;-73
2022/06/12 08:06:28;;;;;;;6.45;2.20;;;22.60;99.90;;;;;;4244324;27;20262;-73
2022/06/12 08:08:31;;;;;;;4.85;1.98;;;22.70;99.90;;;;;;4244687;27;20221;-73
2022/06/12 08:10:33;;;;;;;4.80;1.83;;;22.70;99.90;;;;;;4245582;27;20229;-73
2022/06/12 08:12:37;;;;;;;3.95;1.77;;;22.70;99.90;;;;;;4245775;27;20205;-73
2022/06/12 08:14:40;;;;;;;3.65;1.80;;;22.70;99.90;;;;;;4245366;27;20621;-73
2022/06/12 08:16:44;;;;;;;5.28;2.10;;;22.70;99.90;;;;;;4245563;27;20701;-73
2022/06/12 08:18:46;;;;;;;3.92;1.75;;;22.70;99.90;;;;;;4243589;27;20297;-73
2022/06/12 08:20:50;;;;;;;5.00;2.00;;;22.70;99.90;;;;;;4245122;27;20274;-73
2022/06/12 08:22:54;;;;;;;5.00;2.00;;;22.70;99.90;;;;;;4245330;27;20262;-73
2022/06/12 08:24:56;;;;;;;4.18;2.20;;;22.80;99.90;;;;;;4242311;27;21086;-73
2022/06/12 08:26:59;;;;;;;6.18;2.08;;;22.80;99.90;;;;;;4244796;27;20213;-73
2022/06/12 08:29:05;;;;;;;5.72;2.35;;;22.80;99.90;;;;;;4245542;27;20221;-73
2022/06/12 08:31:10;;;;;;;5.75;2.10;;;22.70;99.90;;;;;;4245262;27;20217;-73
2022/06/12 08:33:13;;;;;;;4.38;1.85;;;22.80;99.90;;;;;;4244479;27;20262;-73
2022/06/12 08:35:19;;;;;;;4.53;2.15;;;22.80;99.90;;;;;;4243909;27;20259;-73
2022/06/12 08:37:25;;;;;;;5.35;2.10;;;22.80;99.90;;;;;;4244802;27;20213;-73
2022/06/12 08:39:29;;;;;;;3.33;1.75;;;22.80;99.90;;;;;;4243713;27;20237;-73
2022/06/12 08:41:40;;;;;;;4.05;1.75;;;22.80;99.90;;;;;;4243723;27;20221;-73
2022/06/12 08:43:48;;;;;;;3.67;1.85;;;22.80;99.90;;;;;;4244691;27;20217;-73
2022/06/12 08:45:52;;;;;;;6.00;1.85;;;22.80;99.90;;;;;;4245360;27;20615;-73
2022/06/12 08:48:00;;;;;;;6.32;2.10;;;22.90;99.90;;;;;;4244593;27;20221;-73
2022/06/12 08:50:17;;;;;;;3.05;1.75;;;22.90;99.90;;;;;;4243965;27;20267;-73
2022/06/12 08:52:27;;;;;;;4.85;2.17;;;22.90;99.90;;;;;;4241754;27;20634;-74
2022/06/12 08:54:35;;;;;;;7.97;2.65;;;22.90;99.90;;;;;;4244422;27;20212;-73
2022/06/12 08:56:43;;;;;;;4.88;2.10;;;22.90;99.90;;;;;;4244301;27;20253;-73
2022/06/12 08:58:49;;;;;;;3.88;1.80;;;22.90;99.90;;;;;;4243172;27;20228;-73
2022/06/12 09:00:51;;;;;;;6.30;2.72;;;22.90;99.90;;;;;;4244629;27;20681;-73
2022/06/12 09:02:55;;;;;;;3.42;1.75;;;22.90;99.90;;;;;;4244726;27;20718;-74
2022/06/12 09:04:58;;;;;;;3.40;1.88;;;22.90;99.90;;;;;;4244842;27;20279;-73
2022/06/12 09:07:06;;;;;;;5.63;1.88;;;22.90;99.90;;;;;;4243835;27;20618;-73
2022/06/12 09:09:20;;;;;;;3.42;2.08;;;22.90;99.90;;;;;;4242270;27;20273;-73
2022/06/12 09:11:30;;;;;;;5.30;2.50;;;22.90;99.90;;;;;;4244195;27;20258;-73
2022/06/12 09:13:41;;;;;;;3.45;1.65;;;22.90;99.90;;;;;;4243979;27;20281;-73
2022/06/12 09:15:49;;;;;;;4.47;2.20;;;22.90;99.90;;;;;;4244257;27;20216;-73
2022/06/12 09:17:57;;;;;;;6.35;2.28;;;22.90;99.90;;;;;;4244299;27;20208;-73
2022/06/12 09:20:11;;;;;;;4.05;1.95;;;22.90;99.90;;;;;;4244122;27;20236;-73
2022/06/12 09:22:22;;;;;;;4.47;1.95;;;22.90;99.90;;;;;;4244306;27;20242;-73
2022/06/12 09:24:31;;;;;;;4.00;2.20;;;23.00;99.90;;;;;;4242446;27;20277;-73
2022/06/12 09:26:42;;;;;;;5.38;2.13;;;23.00;99.90;;;;;;4242796;27;20262;-73
2022/06/12 09:28:53;;;;;;;5.05;1.90;;;23.00;99.90;;;;;;4243419;27;20217;-73
2022/06/12 09:31:01;;;;;;;4.82;2.20;;;23.00;99.90;;;;;;4244204;27;20253;-73
2022/06/12 09:33:11;;;;;;;4.13;2.00;;;22.90;99.90;;;;;;4243768;27;20221;-73
2022/06/12 09:35:27;;;;;;;4.90;2.03;;;23.00;99.90;;;;;;4244614;27;20664;-73
2022/06/12 09:40:10;;;;;;;3.75;1.98;;;23.00;99.90;;;;;;4243615;27;20205;-73
2022/06/12 09:42:18;;;;;;;5.05;2.08;;;23.00;99.90;;;;;;4243648;27;20209;-73
2022/06/12 09:44:34;;;;;;;4.95;2.20;;;23.00;99.90;;;;;;4239969;27;20801;-73
2022/06/12 09:46:38;;;;;;;3.13;1.80;;;23.00;99.90;;;;;;4244392;27;20726;-73
2022/06/12 09:48:55;;;;;;;4.53;1.85;;;23.00;99.90;;;;;;4242148;27;20213;-74
2022/06/12 09:51:14;;;;;;;5.07;2.08;;;23.00;99.90;;;;;;4242893;27;20242;-74
2022/06/12 09:53:39;;;;;;;4.10;2.00;;;23.00;99.90;;;;;;4242876;27;20634;-74
2022/06/12 09:55:47;;;;;;;4.05;1.90;;;23.00;99.90;;;;;;4243689;27;20209;-74
2022/06/12 09:57:57;;;;;;;5.10;2.13;;;23.00;99.90;;;;;;4242944;27;20261;-74
2022/06/12 10:00:05;;;;;;;3.80;1.80;;;23.00;99.90;;;;;;4241698;27;20225;-74
2022/06/12 10:02:17;;;;;;;5.28;2.17;;;22.90;99.90;;;;;;4243501;27;20205;-73
2022/06/12 10:04:27;;;;;;;4.60;1.98;;;23.00;99.90;;;;;;4243428;27;20258;-74
2022/06/12 10:06:36;;;;;;;4.25;2.42;;;23.00;99.90;;;;;;4241076;27;20217;-74
2022/06/12 10:08:50;;;;;;;4.88;2.05;;;23.00;99.90;;;;;;4243265;27;20208;-74
2022/06/12 10:10:59;;;;;;;3.60;1.60;;;23.00;99.90;;;;;;4210021;28;20206;-74
2022/06/12 10:13:07;;;;;;;6.07;2.47;;;23.00;99.90;;;;;;4210467;28;20631;-74
2022/06/12 10:15:14;;;;;;;3.92;2.10;;;23.00;99.90;;;;;;4209531;28;20283;-74
2022/06/12 10:17:22;;;;;;;3.65;1.92;;;23.00;99.90;;;;;;4209783;28;20217;-74
2022/06/12 10:19:31;;;;;;;3.72;2.03;;;23.10;99.90;;;;;;4208012;28;20283;-74
2022/06/12 10:21:37;;;;;;;5.82;2.03;;;23.00;99.90;;;;;;4209709;28;20239;-74
2022/06/12 10:23:41;;;;;;;4.57;2.00;;;23.10;99.90;;;;;;4208427;28;20214;-74
2022/06/12 10:25:49;;;;;;;4.32;1.90;;;23.00;99.90;;;;;;4208392;28;20214;-74
2022/06/12 10:27:56;;;;;;;4.25;2.03;;;23.00;99.90;;;;;;4209527;28;20205;-74
2022/06/12 10:30:01;;;;;;;4.25;1.80;;;23.00;99.90;;;;;;4208985;28;21824;-74
2022/06/12 10:32:11;;;;;;;4.05;2.00;;;23.00;99.90;;;;;;4209589;28;20723;-74
2022/06/12 10:34:16;;;;;;;3.30;1.92;;;23.00;99.90;;;;;;4206965;28;20217;-74
2022/06/12 10:36:24;;;;;;;4.05;2.08;;;23.10;99.90;;;;;;4209211;28;20264;-74
2022/06/12 10:38:29;;;;;;;4.45;2.22;;;23.00;99.90;;;;;;4209489;28;20626;-74
2022/06/12 10:40:34;;;;;;;3.83;2.13;;;23.00;99.90;;;;;;4206358;28;20291;-74
2022/06/12 10:42:43;;;;;;;4.68;1.90;;;23.00;99.90;;;;;;4209440;28;20264;-74
2022/06/12 10:44:55;;;;;;;4.25;1.92;;;23.00;99.90;;;;;;4208044;28;20214;-74
2022/06/12 10:47:26;;;;;;;6.78;2.22;;;23.00;99.90;;;;;;4207867;28;20259;-74
2022/06/12 10:49:28;;;;;;;4.35;2.10;;;23.00;99.90;;;;;;4208386;28;20217;-74
2022/06/12 10:51:36;;;;;;;3.28;1.90;;;22.90;99.90;;;;;;4209127;28;20214;-74
2022/06/12 10:53:38;;;;;;;2.75;1.70;;;23.00;99.90;;;;;;4209805;28;20210;-74
2022/06/12 10:55:50;;;;;;;5.63;1.98;;;23.00;99.90;;;;;;4208700;28;20218;-74
2022/06/12 10:58:01;;;;;;;3.63;1.80;;;23.00;99.90;;;;;;4208364;28;20209;-74
2022/06/12 11:00:09;;;;;;;4.45;2.15;;;23.00;99.90;;;;;;4208576;28;20264;-74
2022/06/12 11:02:42;;;;;;;3.25;1.65;;;23.00;99.90;;;;;;4209427;28;20209;-74
2022/06/12 11:04:57;;;;;;;3.65;2.03;;;23.00;99.90;;;;;;4206446;28;20668;-74
2022/06/12 11:07:11;;;;;;;3.40;1.92;;;23.00;99.90;;;;;;4207966;28;20210;-74
2022/06/12 11:09:42;;;;;;;5.05;1.95;;;23.00;99.90;;;;;;4214415;28;20277;-74
2022/06/12 11:12:02;;;;;;;5.55;2.10;;;22.90;99.90;;;;;;4223495;27;20657;-74